Time;durP1;ratioP1;P1;durP2;ratioP2;P2;SDS_P1;SDS_P2;PMS_P1;PMS_P2;Temp;Humidity;BMP_temperature;BMP_pressure;BME280_temperature;BME280_humidity;BME280_pressure;Samples;Min_cycle;Max_cycle;Signal;HPM_P1;HPM_P2
2022/01/30 00:01:15;;;;;;;16.70;2.60;;;;;;;3.91;76.50;97130.57;105764;1273;73025;-72
2022/01/30 00:04:03;;;;;;;15.50;2.80;;;;;;;3.88;77.09;97126.98;104973;1273;67027;-72
2022/01/30 00:06:52;;;;;;;19.10;3.20;;;;;;;3.85;77.61;97132.55;104821;1273;71318;-72
2022/01/30 00:09:40;;;;;;;13.40;3.00;;;;;;;3.82;77.43;97109.52;104956;1273;59738;-72
2022/01/30 00:12:40;;;;;;;14.10;2.30;;;;;;;3.79;77.39;97102.29;104981;1273;60367;-72
2022/01/30 00:16:05;;;;;;;17.20;3.10;;;;;;;3.77;77.92;97100.69;104969;1273;73513;-71
2022/01/30 00:18:51;;;;;;;19.30;3.20;;;;;;;3.73;77.98;97104.55;106229;1273;66632;-72
2022/01/30 00:21:46;;;;;;;15.00;3.30;;;;;;;3.71;77.64;97106.82;104964;1273;71606;-71
2022/01/30 00:24:47;;;;;;;17.20;3.00;;;;;;;3.71;77.02;97100.17;104185;1274;1003135;-72
2022/01/30 00:27:54;;;;;;;15.10;3.20;;;;;;;3.72;76.46;97104.86;104754;1274;59666;-72
2022/01/30 00:30:46;;;;;;;15.60;3.00;;;;;;;3.74;74.82;97103.01;105018;1273;71390;-72
2022/01/30 00:33:34;;;;;;;23.20;4.00;;;;;;;3.79;74.60;97118.08;105162;1273;68229;-72
2022/01/30 00:36:23;;;;;;;17.10;2.70;;;;;;;3.81;74.55;97128.02;104783;1273;73072;-71
2022/01/30 00:39:11;;;;;;;14.80;3.00;;;;;;;3.80;74.60;97133.17;103454;1274;1003739;-71
2022/01/30 00:42:00;;;;;;;14.60;2.60;;;;;;;3.81;73.86;97125.34;104965;1274;60317;-72
2022/01/30 00:44:49;;;;;;;22.60;3.30;;;;;;;3.82;73.98;97118.05;105172;1273;73563;-72
2022/01/30 00:47:38;;;;;;;19.30;3.10;;;;;;;3.82;74.23;97131.38;104696;1274;67089;-71
2022/01/30 00:50:26;;;;;;;16.00;2.80;;;;;;;3.83;74.09;97118.36;104999;1273;73809;-71
2022/01/30 00:53:15;;;;;;;12.50;2.60;;;;;;;3.82;74.04;97122.30;105004;1274;59809;-71
2022/01/30 00:56:04;;;;;;;22.70;3.30;;;;;;;3.81;73.22;97125.70;104822;1273;59655;-71
2022/01/30 00:58:53;;;;;;;18.50;3.10;;;;;;;3.82;72.84;97109.69;104860;1273;71983;-71
2022/01/30 01:01:41;;;;;;;16.10;3.30;;;;;;;3.81;73.06;97098.01;105329;1273;67961;-71
2022/01/30 01:04:30;;;;;;;19.10;3.20;;;;;;;3.80;73.36;97116.70;104730;1273;71282;-71
2022/01/30 01:07:21;;;;;;;16.60;2.90;;;;;;;3.78;73.28;97113.41;104677;1274;59566;-71
2022/01/30 01:25:48;;;;;;;16.40;3.50;;;;;;;3.73;71.60;97092.58;105128;1274;60575;-72
2022/01/30 01:28:38;;;;;;;19.30;3.30;;;;;;;3.72;71.66;97086.10;104631;1274;72240;-72
2022/01/30 01:31:26;;;;;;;16.20;3.30;;;;;;;3.70;70.91;97093.43;105125;1273;68330;-71
2022/01/30 01:37:03;;;;;;;18.10;3.10;;;;;;;3.71;70.05;97099.67;104672;1273;59796;-71
2022/01/30 01:39:51;;;;;;;17.60;4.00;;;;;;;3.69;70.43;97074.73;104852;1273;60310;-72
2022/01/30 01:42:40;;;;;;;23.40;3.50;;;;;;;3.68;69.86;97077.80;104701;1276;72232;-71
2022/01/30 01:45:34;;;;;;;19.30;3.30;;;;;;;3.66;70.58;97069.79;104593;1273;67036;-71
2022/01/30 01:48:23;;;;;;;19.10;2.70;;;;;;;3.64;69.10;97077.20;105139;1273;72807;-72
2022/01/30 01:51:18;;;;;;;15.50;2.90;;;;;;;3.67;69.38;97093.77;104827;1273;59735;-72
2022/01/30 01:54:06;;;;;;;23.90;3.00;;;;;;;3.66;68.74;97075.63;104831;1274;60309;-72
2022/01/30 01:56:55;;;;;;;19.70;2.90;;;;;;;3.66;68.83;97050.87;104619;1274;73483;-71
2022/01/30 01:59:56;;;;;;;15.90;3.10;;;;;;;3.64;68.89;97071.02;104774;1274;66955;-71
2022/01/30 02:03:16;;;;;;;17.90;2.60;;;;;;;3.63;68.45;97051.35;104794;1274;71787;-72
2022/01/30 02:06:09;;;;;;;23.10;3.60;;;;;;;3.62;68.85;97048.44;104846;1273;59676;-71
2022/01/30 02:09:05;;;;;;;14.90;2.70;;;;;;;3.61;69.21;97053.87;105102;1273;59999;-72
2022/01/30 02:11:54;;;;;;;16.60;3.70;;;;;;;3.57;69.29;97050.46;104742;1273;73369;-71
2022/01/30 02:23:53;;;;;;;15.20;3.30;;;;;;;3.56;68.93;97050.80;104873;1273;67812;-71
2022/01/30 02:24:09;;;;;;;27.40;3.40;;;;;;;3.43;71.73;97035.20;104901;1273;59581;-72
2022/01/30 02:26:57;;;;;;;22.00;2.80;;;;;;;3.41;71.30;97012.80;104622;1273;73416;-72
2022/01/30 02:29:46;;;;;;;17.00;2.80;;;;;;;3.41;71.95;97040.65;104794;1273;68172;-72
2022/01/30 02:32:35;;;;;;;16.70;2.80;;;;;;;3.41;73.09;97028.76;105046;1273;72786;-71
2022/01/30 02:35:24;;;;;;;22.90;3.50;;;;;;;3.39;73.76;97008.01;104895;1274;59720;-71
2022/01/30 02:38:12;;;;;;;14.20;2.60;;;;;;;3.38;72.76;97009.34;104623;1274;59793;-71
2022/01/30 02:41:01;;;;;;;21.20;3.40;;;;;;;3.37;73.48;97011.73;104792;1274;73469;-71
2022/01/30 02:44:06;;;;;;;18.30;3.20;;;;;;;3.35;73.93;96994.79;104663;1273;66990;-72
2022/01/30 02:46:59;;;;;;;18.20;3.70;;;;;;;3.33;74.32;96994.46;104748;1274;71609;-72
2022/01/30 02:50:54;;;;;;;19.60;2.90;;;;;;;3.31;74.82;96994.29;105001;1274;59700;-72
2022/01/30 02:53:09;;;;;;;19.30;3.00;;;;;;;3.28;76.50;96988.96;105162;1273;60768;-72
2022/01/30 02:55:59;;;;;;;14.90;2.20;;;;;;;3.23;77.81;97006.66;105028;1273;72067;-71
2022/01/30 02:58:47;;;;;;;18.00;2.90;;;;;;;3.07;81.78;97007.61;104829;1273;68093;-72
2022/01/30 03:01:37;;;;;;;8.50;1.80;;;;;;;2.79;85.67;97030.24;104568;1276;73200;-72
2022/01/30 03:04:26;;;;;;;14.50;2.40;;;;;;;2.49;88.13;97016.88;105011;1273;59762;-72
2022/01/30 03:07:14;;;;;;;8.80;1.40;;;;;;;2.13;89.81;97025.85;104945;1274;59776;-73
2022/01/30 03:10:15;;;;;;;7.10;1.70;;;;;;;1.82;91.41;97010.82;105113;1273;73696;-72
2022/01/30 03:13:04;;;;;;;10.50;1.60;;;;;;;1.60;93.09;97041.05;105132;1273;68412;-73
2022/01/30 03:15:52;;;;;;;9.70;1.40;;;;;;;1.46;94.28;97021.19;105275;1273;73022;-73
2022/01/30 03:18:40;;;;;;;8.70;1.70;;;;;;;1.34;95.71;97003.30;105097;1273;59874;-72
2022/01/30 03:21:29;;;;;;;11.70;2.60;;;;;;;1.25;97.31;97019.14;104997;1273;59654;-73
2022/01/30 03:24:18;;;;;;;9.80;1.50;;;;;;;1.22;98.88;97014.55;104688;1274;73315;-73
2022/01/30 03:27:10;;;;;;;10.40;1.90;;;;;;;1.21;99.22;97017.23;104788;1273;66969;-73
2022/01/30 03:30:06;;;;;;;15.90;2.20;;;;;;;1.25;98.78;97017.73;104991;1273;73696;-73
2022/01/30 03:33:30;;;;;;;12.30;2.20;;;;;;;1.29;98.73;97014.94;105204;1273;59684;-73
2022/01/30 03:36:19;;;;;;;16.30;2.80;;;;;;;1.30;98.99;97014.63;105260;1273;60348;-73
2022/01/30 03:39:07;;;;;;;16.20;3.00;;;;;;;1.34;98.44;97018.17;104952;1273;72230;-72
2022/01/30 03:41:56;;;;;;;19.80;2.50;;;;;;;1.40;98.03;97002.13;104965;1273;66852;-73
2022/01/30 03:44:44;;;;;;;22.30;2.70;;;;;;;1.44;97.52;97003.52;104858;1273;73175;-72
2022/01/30 03:47:33;;;;;;;16.50;2.70;;;;;;;1.48;96.98;97010.48;104625;1274;59695;-73
2022/01/30 03:50:24;;;;;;;20.10;3.00;;;;;;;1.52;96.45;96999.79;104945;1273;59649;-72
2022/01/30 03:53:12;;;;;;;20.10;3.00;;;;;;;1.58;95.43;96994.38;104674;1273;73897;-72
2022/01/30 03:56:01;;;;;;;20.80;2.90;;;;;;;1.64;94.78;96994.40;104728;1273;67898;-73
2022/01/30 03:58:51;;;;;;;20.00;3.50;;;;;;;1.71;93.60;96998.15;105157;1273;72924;-73
2022/01/30 04:01:40;;;;;;;16.70;2.60;;;;;;;1.71;93.52;97003.54;104975;1273;59660;-73
2022/01/30 04:04:29;;;;;;;15.50;2.90;;;;;;;1.62;92.29;96975.89;104565;1275;60918;-74
2022/01/30 04:07:19;;;;;;;16.30;3.50;;;;;;;1.53;93.45;96983.33;104480;1274;73100;-73
2022/01/30 04:10:09;;;;;;;21.40;3.30;;;;;;;1.46;94.71;96982.86;104811;1274;67208;-72
2022/01/30 04:13:02;;;;;;;21.20;3.60;;;;;;;1.45;95.07;96985.60;105029;1273;72802;-74
2022/01/30 04:16:10;;;;;;;14.20;2.90;;;;;;;1.51;91.87;97000.91;105074;1273;59681;-73
2022/01/30 04:19:25;;;;;;;11.30;2.60;;;;;;;1.60;91.06;97006.65;105257;1274;60617;-73
2022/01/30 04:22:30;;;;;;;12.90;2.60;;;;;;;1.60;91.04;97004.91;104997;1274;73384;-73
2022/01/30 04:25:35;;;;;;;14.90;2.80;;;;;;;1.55;90.05;97007.95;104929;1274;68221;-73
2022/01/30 04:28:40;;;;;;;12.70;2.10;;;;;;;1.47;88.94;97004.26;104661;1274;72341;-72
2022/01/30 04:31:50;;;;;;;9.60;2.30;;;;;;;1.38;88.30;97004.95;104660;1273;59650;-73
2022/01/30 04:34:40;;;;;;;16.90;2.30;;;;;;;1.27;88.43;97007.79;104670;1274;60608;-72
2022/01/30 04:55:59;;;;;;;10.90;2.20;;;;;;;1.03;88.72;97000.82;104741;1273;74310;-72
2022/01/30 05:02:44;;;;;;;12.40;1.90;;;;;;;1.06;88.08;97005.08;104916;1273;73195;-72
2022/01/30 05:06:01;;;;;;;11.10;1.80;;;;;;;1.11;87.82;97006.09;105083;1273;60679;-73
2022/01/30 05:08:53;;;;;;;15.10;1.90;;;;;;;1.14;87.82;97004.59;104776;1273;59572;-71
2022/01/30 05:12:00;;;;;;;12.70;2.10;;;;;;;1.19;87.16;96987.86;105359;1273;73639;-72
2022/01/30 05:15:14;;;;;;;13.70;2.10;;;;;;;1.23;87.20;96994.21;104952;1273;66908;-72
2022/01/30 05:18:26;;;;;;;19.50;2.40;;;;;;;1.26;86.92;96997.74;105097;1273;72869;-72
2022/01/30 05:21:42;;;;;;;11.40;2.10;;;;;;;1.30;86.27;97002.14;104963;1274;59667;-72
2022/01/30 05:24:36;;;;;;;12.70;2.50;;;;;;;1.35;84.97;96997.81;105121;1273;59622;-72
2022/01/30 05:27:44;;;;;;;10.40;1.90;;;;;;;1.41;84.23;96996.63;105265;1274;73381;-72
2022/01/30 05:30:41;;;;;;;15.30;2.30;;;;;;;1.45;84.01;97002.89;104713;1273;66667;-72
2022/01/30 05:33:34;;;;;;;12.20;2.10;;;;;;;1.48;83.90;96997.19;104747;1273;72716;-72
2022/01/30 05:36:52;;;;;;;15.00;2.70;;;;;;;1.55;82.08;97009.70;105010;1273;59722;-72
2022/01/30 05:40:00;;;;;;;15.90;2.60;;;;;;;1.64;81.87;97005.23;104942;1273;61204;-72
2022/01/30 05:43:18;;;;;;;13.40;2.30;;;;;;;1.68;81.47;97005.55;104803;1272;73849;-71
2022/01/30 05:46:36;;;;;;;12.60;2.60;;;;;;;1.74;80.14;97015.48;104962;1274;68140;-72
2022/01/30 05:49:49;;;;;;;23.40;4.70;;;;;;;1.83;79.63;97013.83;104876;1273;73050;-74
2022/01/30 05:53:02;;;;;;;21.90;6.50;;;;;;;1.86;79.72;97018.23;105397;1274;59691;-72
2022/01/30 05:56:11;;;;;;;18.80;4.90;;;;;;;1.90;79.32;97010.78;105016;1273;59722;-73
2022/01/30 05:59:01;;;;;;;19.10;4.80;;;;;;;1.93;78.57;97008.36;105146;1273;73032;-73
2022/01/30 06:01:49;;;;;;;18.20;3.30;;;;;;;1.97;78.33;97001.90;105126;1274;66404;-73
2022/01/30 06:04:40;;;;;;;17.10;3.00;;;;;;;2.01;78.34;97004.89;105183;1274;71678;-73
2022/01/30 06:07:31;;;;;;;15.40;3.30;;;;;;;2.05;77.85;97011.61;105098;1273;59780;-73
2022/01/30 06:10:23;;;;;;;13.50;2.40;;;;;;;2.12;77.71;97016.98;105448;1273;60203;-72
2022/01/30 06:13:11;;;;;;;15.80;2.30;;;;;;;2.17;77.65;97007.30;104901;1274;72023;-73
2022/01/30 06:16:00;;;;;;;22.20;3.60;;;;;;;2.22;77.09;97018.48;105121;1273;68056;-73
2022/01/30 06:18:49;;;;;;;18.70;2.70;;;;;;;2.26;76.77;97008.88;105135;1273;72853;-73
2022/01/30 06:22:00;;;;;;;15.20;2.40;;;;;;;2.28;77.20;96999.89;105082;1273;60108;-73
2022/01/30 06:25:09;;;;;;;15.30;2.10;;;;;;;2.31;76.84;97001.64;105111;1273;59937;-73
2022/01/30 06:28:16;;;;;;;18.40;2.90;;;;;;;2.36;76.68;96999.75;105132;1273;72297;-73
2022/01/30 06:31:24;;;;;;;14.20;2.30;;;;;;;2.41;76.54;97011.35;104842;1274;67018;-72
2022/01/30 06:34:19;;;;;;;13.10;2.50;;;;;;;2.47;76.04;96999.63;105278;1273;72656;-73
2022/01/30 06:37:27;;;;;;;13.40;2.40;;;;;;;2.51;76.05;97012.17;105147;1273;59782;-72
2022/01/30 06:40:27;;;;;;;13.00;2.70;;;;;;;2.55;75.59;97017.55;105549;1273;60665;-73
2022/01/30 06:43:28;;;;;;;15.00;2.40;;;;;;;2.61;75.78;97018.10;105182;1273;72337;-73
2022/01/30 06:46:35;;;;;;;10.70;1.90;;;;;;;2.65;75.68;97014.23;105089;1273;66927;-73
2022/01/30 06:49:42;;;;;;;18.60;2.20;;;;;;;2.68;75.96;97024.20;105260;1273;73688;-72
2022/01/30 06:52:53;;;;;;;15.70;2.10;;;;;;;2.69;76.28;97025.56;105607;1273;59647;-73
2022/01/30 06:55:54;;;;;;;14.80;2.20;;;;;;;2.71;76.76;97032.05;105173;1273;59727;-73
2022/01/30 06:59:01;;;;;;;16.10;2.50;;;;;;;2.71;77.64;97031.82;104958;1273;71748;-73
2022/01/30 07:02:09;;;;;;;12.00;2.60;;;;;;;2.68;79.00;97060.48;104921;1273;66873;-73
2022/01/30 07:05:17;;;;;;;17.20;2.60;;;;;;;2.62;80.82;97064.76;105524;1273;73027;-73
2022/01/30 07:08:09;;;;;;;9.20;1.80;;;;;;;2.55;81.81;97058.84;105019;1274;59649;-72
2022/01/30 07:10:57;;;;;;;13.10;1.80;;;;;;;2.50;81.71;97078.45;105104;1273;59720;-72
2022/01/30 07:13:45;;;;;;;12.60;2.20;;;;;;;2.47;81.92;97084.67;105381;1273;70715;-72
2022/01/30 07:16:34;;;;;;;12.10;1.90;;;;;;;2.45;82.37;97079.44;105545;1274;68212;-72
2022/01/30 07:19:22;;;;;;;11.80;1.90;;;;;;;2.44;83.01;97084.43;104754;1275;320149;-73
2022/01/30 07:22:11;;;;;;;11.10;2.20;;;;;;;2.43;81.98;97083.86;105003;1273;59779;-73
2022/01/30 07:24:59;;;;;;;9.20;1.70;;;;;;;2.43;80.86;97091.81;105273;1273;59561;-72
2022/01/30 07:27:47;;;;;;;9.20;2.10;;;;;;;2.49;79.59;97090.42;105113;1273;71873;-72
2022/01/30 07:30:37;;;;;;;13.50;2.50;;;;;;;2.54;78.83;97086.48;104879;1274;67845;-72
2022/01/30 07:33:25;;;;;;;8.40;1.70;;;;;;;2.59;76.73;97087.76;105345;1273;72631;-72
2022/01/30 07:36:13;;;;;;;7.20;1.50;;;;;;;2.66;76.46;97090.05;105157;1273;59688;-72
2022/01/30 07:39:12;;;;;;;10.70;1.90;;;;;;;2.70;75.29;97097.36;105169;1274;60410;-73
2022/01/30 07:42:00;;;;;;;13.20;2.10;;;;;;;2.76;75.29;97101.61;105017;1276;73631;-72
2022/01/30 07:44:53;;;;;;;10.50;2.20;;;;;;;2.76;76.70;97102.47;105369;1273;67391;-73
2022/01/30 07:47:42;;;;;;;10.20;2.20;;;;;;;2.75;76.25;97109.95;105440;1276;72790;-73
2022/01/30 07:50:30;;;;;;;7.90;1.80;;;;;;;2.74;76.03;97108.06;105146;1274;59688;-73
2022/01/30 07:53:19;;;;;;;10.50;1.80;;;;;;;2.71;77.96;97118.87;105051;1273;59601;-73
2022/01/30 07:56:07;;;;;;;12.60;1.80;;;;;;;2.60;79.90;97133.71;105376;1273;72410;-72
2022/01/30 07:58:56;;;;;;;8.10;1.50;;;;;;;2.45;82.17;97156.59;104639;1274;67066;-72
2022/01/30 08:01:45;;;;;;;6.70;1.60;;;;;;;2.27;85.14;97166.11;105030;1274;72707;-74
2022/01/30 08:04:34;;;;;;;8.30;1.40;;;;;;;2.09;86.87;97178.54;104774;1276;59637;-72
2022/01/30 08:07:23;;;;;;;9.10;1.50;;;;;;;1.96;88.67;97177.23;104703;1274;59648;-73
2022/01/30 08:10:11;;;;;;;9.00;1.40;;;;;;;1.83;89.96;97182.71;104776;1274;73867;-72
2022/01/30 08:12:59;;;;;;;8.60;1.40;;;;;;;1.74;91.51;97205.19;105140;1274;66515;-73
2022/01/30 08:15:48;;;;;;;11.20;1.60;;;;;;;1.65;92.27;97206.46;104747;1274;73042;-73
2022/01/30 08:18:37;;;;;;;11.50;2.00;;;;;;;1.62;93.16;97217.38;104698;1274;60000;-73
2022/01/30 08:21:25;;;;;;;5.90;1.40;;;;;;;1.58;92.94;97229.81;104878;1274;60643;-74
2022/01/30 08:24:14;;;;;;;6.30;1.30;;;;;;;1.55;93.44;97237.61;104588;1274;73437;-72
2022/01/30 08:27:03;;;;;;;7.40;1.30;;;;;;;1.49;94.38;97251.00;105097;1274;68224;-73
2022/01/30 08:29:51;;;;;;;7.10;1.50;;;;;;;1.47;94.23;97251.68;105328;1273;73066;-73
2022/01/30 08:32:45;;;;;;;7.60;1.40;;;;;;;1.50;94.17;97260.55;104737;1274;59597;-73
2022/01/30 08:35:34;;;;;;;7.10;1.30;;;;;;;1.49;94.81;97275.47;105097;1274;60633;-73
2022/01/30 08:38:22;;;;;;;7.10;1.20;;;;;;;1.44;94.89;97273.65;105283;1273;73380;-74
2022/01/30 08:41:10;;;;;;;7.40;1.60;;;;;;;1.45;95.41;97279.85;105143;1273;68121;-74
2022/01/30 08:43:59;;;;;;;7.30;1.20;;;;;;;1.43;95.59;97295.20;105188;1274;71616;-74
2022/01/30 08:46:47;;;;;;;4.40;1.20;;;;;;;1.39;95.75;97301.67;104868;1273;59665;-74
2022/01/30 08:49:35;;;;;;;6.30;1.20;;;;;;;1.38;96.03;97298.77;104829;1274;59544;-74
2022/01/30 08:52:24;;;;;;;8.20;1.60;;;;;;;1.40;95.98;97310.88;104774;1273;71909;-74
2022/01/30 08:55:13;;;;;;;7.00;1.70;;;;;;;1.41;94.83;97310.73;105112;1273;67504;-74
2022/01/30 08:58:09;;;;;;;6.10;1.50;;;;;;;1.48;94.61;97317.71;104870;1274;73048;-74
2022/01/30 09:00:58;;;;;;;7.40;1.70;;;;;;;1.52;93.97;97336.41;104834;1273;59606;-74
2022/01/30 09:03:46;;;;;;;6.30;1.40;;;;;;;1.56;93.84;97352.68;104834;1273;60421;-73
2022/01/30 09:06:38;;;;;;;6.60;1.30;;;;;;;1.56;93.86;97367.55;104786;1273;73531;-74
2022/01/30 09:09:27;;;;;;;6.10;1.40;;;;;;;1.53;94.31;97378.63;105126;1273;67676;-74
2022/01/30 09:12:16;;;;;;;5.50;1.30;;;;;;;1.47;94.84;97388.05;105156;1274;71781;-74
2022/01/30 09:15:08;;;;;;;4.50;1.10;;;;;;;1.38;95.27;97397.30;105010;1274;59640;-74
2022/01/30 09:17:57;;;;;;;5.50;1.10;;;;;;;1.35;95.89;97400.36;105067;1274;59523;-74
2022/01/30 09:20:46;;;;;;;4.20;1.10;;;;;;;1.33;95.96;97401.51;104818;1274;73519;-74
2022/01/30 09:23:35;;;;;;;4.90;1.30;;;;;;;1.31;96.12;97410.64;101721;1274;1003612;-74
2022/01/30 09:26:23;;;;;;;4.10;0.90;;;;;;;1.26;96.59;97422.25;105343;1274;72895;-74
2022/01/30 09:29:12;;;;;;;7.50;1.40;;;;;;;1.21;96.88;97434.15;105239;1274;60020;-73
2022/01/30 09:32:18;;;;;;;5.90;1.30;;;;;;;1.17;97.53;97459.15;105351;1274;59548;-73
2022/01/30 09:35:08;;;;;;;5.90;1.40;;;;;;;1.15;98.21;97470.30;105193;1273;73331;-72
2022/01/30 09:37:58;;;;;;;5.60;1.00;;;;;;;1.13;98.30;97483.88;104858;1273;67783;-73
2022/01/30 09:40:47;;;;;;;5.70;1.10;;;;;;;1.16;97.94;97490.42;105130;1273;73621;-73
2022/01/30 09:43:36;;;;;;;5.10;1.30;;;;;;;1.20;97.48;97488.22;105084;1274;59609;-73
2022/01/30 09:46:26;;;;;;;4.70;1.10;;;;;;;1.23;96.72;97501.73;104944;1274;60677;-73
2022/01/30 09:49:18;;;;;;;6.00;1.20;;;;;;;1.28;95.92;97507.83;105437;1274;71800;-73
2022/01/30 09:52:09;;;;;;;4.80;1.10;;;;;;;1.34;95.73;97510.28;105465;1274;65506;-73
2022/01/30 09:54:57;;;;;;;7.30;1.40;;;;;;;1.42;95.15;97521.09;105076;1274;72944;-73
2022/01/30 09:57:47;;;;;;;5.80;1.30;;;;;;;1.47;95.46;97516.30;105085;1273;59782;-72
2022/01/30 10:00:35;;;;;;;5.70;1.60;;;;;;;1.48;95.54;97520.70;105208;1273;60704;-72
2022/01/30 10:03:28;;;;;;;6.00;1.20;;;;;;;1.49;96.02;97545.97;105123;1274;73479;-72
2022/01/30 10:06:21;;;;;;;6.30;1.30;;;;;;;1.50;96.27;97549.06;104908;1273;66841;-72
2022/01/30 10:09:28;;;;;;;5.40;1.60;;;;;;;1.54;96.65;97570.21;105099;1273;72980;-72
2022/01/30 10:12:22;;;;;;;7.10;1.60;;;;;;;1.56;96.93;97572.87;105446;1274;59576;-72
2022/01/30 10:15:15;;;;;;;6.30;1.40;;;;;;;1.56;97.08;97563.57;104919;1273;59644;-73
2022/01/30 10:18:04;;;;;;;5.20;1.20;;;;;;;1.61;97.77;97565.52;105099;1273;72384;-73
2022/01/30 10:21:20;;;;;;;5.80;1.20;;;;;;;1.59;97.87;97564.06;104991;1275;66988;-73
2022/01/30 10:24:24;;;;;;;5.10;1.10;;;;;;;1.56;98.19;97597.68;104645;1273;72014;-72
2022/01/30 10:27:25;;;;;;;5.30;1.30;;;;;;;1.51;98.06;97600.67;104889;1274;59892;-73
2022/01/30 10:30:21;;;;;;;4.90;1.40;;;;;;;1.57;98.45;97613.75;105209;1273;60528;-73
2022/01/30 10:33:14;;;;;;;6.90;1.60;;;;;;;1.64;98.17;97611.59;104831;1275;72169;-73
2022/01/30 10:36:03;;;;;;;5.30;1.20;;;;;;;1.71;98.13;97628.66;105301;1273;68009;-73
2022/01/30 10:39:12;;;;;;;8.00;1.40;;;;;;;1.81;97.64;97639.58;104970;1273;71910;-72
2022/01/30 10:42:01;;;;;;;6.80;1.70;;;;;;;1.92;96.98;97659.89;104945;1274;60268;-72
2022/01/30 10:44:49;;;;;;;6.20;1.20;;;;;;;1.99;96.39;97670.86;105292;1274;60410;-72
2022/01/30 10:47:38;;;;;;;6.10;1.40;;;;;;;2.04;96.21;97666.38;105227;1273;71244;-72
2022/01/30 10:50:28;;;;;;;6.60;1.50;;;;;;;2.08;96.10;97679.89;105102;1274;67844;-72
2022/01/30 10:53:23;;;;;;;7.50;1.70;;;;;;;2.10;95.88;97690.98;105129;1274;72229;-73
2022/01/30 10:56:21;;;;;;;8.00;1.70;;;;;;;2.08;95.80;97697.24;105448;1273;59566;-72
2022/01/30 10:59:20;;;;;;;6.10;1.40;;;;;;;2.09;95.22;97706.61;104979;1275;61222;-71
2022/01/30 11:02:18;;;;;;;6.40;1.70;;;;;;;2.09;95.15;97719.02;105046;1273;73325;-72
2022/01/30 11:05:12;;;;;;;6.60;1.60;;;;;;;2.09;94.29;97723.04;105109;1274;67826;-72
2022/01/30 11:08:00;;;;;;;8.10;1.60;;;;;;;2.11;92.33;97732.33;104979;1274;70892;-71
2022/01/30 11:11:09;;;;;;;7.50;1.50;;;;;;;2.15;91.21;97728.14;105221;1274;59625;-71
2022/01/30 11:16:57;;;;;;;6.30;1.50;;;;;;;2.26;89.76;97747.92;105549;1273;73565;-71
2022/01/30 11:19:53;;;;;;;4.80;1.30;;;;;;;2.29;89.18;97756.42;105293;1274;67109;-72
2022/01/30 11:22:48;;;;;;;7.70;1.50;;;;;;;2.31;88.71;97779.52;105693;1273;71611;-72
2022/01/30 11:25:38;;;;;;;7.20;1.70;;;;;;;2.35;88.48;97771.52;105046;1274;59749;-72
2022/01/30 11:28:27;;;;;;;6.30;1.30;;;;;;;2.39;87.91;97769.61;105314;1274;59647;-72
2022/01/30 11:31:21;;;;;;;6.30;1.30;;;;;;;2.44;86.15;97764.35;104824;1275;74478;-73
2022/01/30 11:34:11;;;;;;;7.20;1.50;;;;;;;2.51;86.84;97784.81;105033;1275;67133;-73
2022/01/30 11:37:03;;;;;;;6.40;1.60;;;;;;;2.54;86.14;97787.89;105577;1274;72979;-73
2022/01/30 11:39:52;;;;;;;5.40;1.60;;;;;;;2.59;85.55;97789.23;105412;1275;59776;-70
2022/01/30 11:42:44;;;;;;;6.00;1.40;;;;;;;2.67;84.19;97803.79;105227;1273;59545;-72
2022/01/30 11:45:33;;;;;;;7.00;1.40;;;;;;;2.76;82.45;97796.61;104852;1274;73433;-72
2022/01/30 11:48:23;;;;;;;5.80;1.40;;;;;;;2.86;82.38;97804.19;105337;1274;67064;-73
2022/01/30 11:51:12;;;;;;;5.90;1.50;;;;;;;2.95;81.37;97793.67;105387;1274;73062;-72
2022/01/30 11:54:38;;;;;;;6.40;1.20;;;;;;;3.01;80.71;97807.55;105688;1274;59778;-71
2022/01/30 11:57:28;;;;;;;6.10;1.40;;;;;;;3.06;80.31;97835.66;105412;1274;59576;-71
2022/01/30 12:00:38;;;;;;;7.10;1.30;;;;;;;3.12;80.16;97826.96;105022;1273;73502;-71
2022/01/30 12:03:30;;;;;;;6.10;1.20;;;;;;;3.24;78.37;97838.80;105445;1274;67308;-71
2022/01/30 12:06:21;;;;;;;7.00;1.60;;;;;;;3.35;78.18;97847.11;105248;1273;72887;-71
2022/01/30 12:09:17;;;;;;;6.10;1.50;;;;;;;3.47;77.03;97840.19;105309;1273;59668;-70
2022/01/30 12:12:08;;;;;;;4.60;1.20;;;;;;;3.58;75.15;97864.34;105253;1274;59579;-71
2022/01/30 12:14:57;;;;;;;6.40;1.60;;;;;;;3.69;73.88;97856.73;104914;1274;73180;-70
2022/01/30 12:17:49;;;;;;;6.80;1.60;;;;;;;3.77;72.72;97873.48;105151;1274;66155;-70
2022/01/30 12:20:56;;;;;;;6.20;1.30;;;;;;;3.82;72.32;97884.48;105045;1274;70498;-71
2022/01/30 12:23:48;;;;;;;5.40;1.40;;;;;;;3.87;71.30;97885.55;105409;1274;59774;-72
2022/01/30 12:26:53;;;;;;;6.50;1.30;;;;;;;3.90;70.34;97903.39;104947;1274;59675;-71
2022/01/30 12:29:50;;;;;;;6.20;1.30;;;;;;;3.96;69.85;97899.79;105097;1274;72050;-71
2022/01/30 12:32:39;;;;;;;5.40;1.50;;;;;;;4.01;69.75;97917.91;105143;1274;67286;-72
2022/01/30 12:35:30;;;;;;;5.80;1.50;;;;;;;4.03;69.63;97926.18;105387;1274;71612;-73
2022/01/30 12:38:29;;;;;;;5.60;1.40;;;;;;;4.07;68.72;97930.41;105202;1274;60697;-72
2022/01/30 12:41:24;;;;;;;6.50;1.50;;;;;;;4.11;68.38;97938.86;105072;1275;59617;-70
2022/01/30 12:44:28;;;;;;;8.20;1.40;;;;;;;4.14;67.72;97957.20;104846;1274;71741;-74
2022/01/30 12:47:17;;;;;;;5.90;1.40;;;;;;;4.20;67.74;97960.84;105096;1274;66825;-74
2022/01/30 12:50:09;;;;;;;6.30;1.30;;;;;;;4.21;67.53;97982.54;105270;1274;71911;-74
2022/01/30 12:53:06;;;;;;;5.30;1.00;;;;;;;4.20;66.91;97977.34;104996;1274;59685;-74
2022/01/30 12:55:55;;;;;;;5.40;1.10;;;;;;;4.21;65.71;97990.97;105142;1274;60948;-74
2022/01/30 12:58:48;;;;;;;4.80;1.20;;;;;;;4.51;64.93;97997.73;105015;1274;73281;-73
2022/01/30 13:01:44;;;;;;;6.30;1.00;;;;;;;4.58;64.14;98006.48;104935;1274;68435;-73
2022/01/30 13:04:37;;;;;;;5.80;1.20;;;;;;;4.66;64.57;98015.33;105354;1274;73021;-74
2022/01/30 13:07:25;;;;;;;5.90;1.60;;;;;;;4.62;64.25;98034.63;105179;1274;59607;-73
2022/01/30 13:10:19;;;;;;;5.70;1.20;;;;;;;4.53;63.57;98026.92;105086;1275;59676;-73
2022/01/30 13:13:08;;;;;;;6.10;1.40;;;;;;;4.39;63.88;98047.45;105366;1274;71886;-72
2022/01/30 13:15:57;;;;;;;5.30;1.20;;;;;;;4.26;64.96;98056.98;105207;1274;68296;-72
2022/01/30 13:18:45;;;;;;;6.40;1.20;;;;;;;4.18;65.57;98060.04;104958;1274;72036;-72
2022/01/30 13:21:36;;;;;;;7.20;1.80;;;;;;;4.12;66.22;98064.95;105488;1274;59310;-71
2022/01/30 13:24:25;;;;;;;5.70;1.10;;;;;;;4.08;67.02;98070.02;105462;1274;59673;-72
2022/01/30 13:27:16;;;;;;;6.00;1.40;;;;;;;4.01;66.52;98077.80;104244;1274;1002776;-71
2022/01/30 13:30:08;;;;;;;5.90;1.30;;;;;;;3.96;66.61;98084.86;105092;1274;66753;-72
2022/01/30 13:32:59;;;;;;;6.40;1.30;;;;;;;3.96;66.41;98095.90;105438;1273;73081;-72
2022/01/30 13:35:48;;;;;;;6.40;1.70;;;;;;;3.99;66.18;98097.66;104886;1274;59657;-72
2022/01/30 13:38:41;;;;;;;7.10;1.20;;;;;;;4.02;66.12;98099.78;105222;1274;59643;-72
2022/01/30 13:41:31;;;;;;;7.50;1.50;;;;;;;4.04;66.72;98098.60;104973;1274;72077;-73
2022/01/30 13:44:26;;;;;;;7.30;1.70;;;;;;;3.99;66.36;98096.73;105141;1274;68363;-73
2022/01/30 13:47:22;;;;;;;7.40;1.50;;;;;;;3.91;66.06;98104.23;105256;1274;72186;-73
2022/01/30 13:50:18;;;;;;;5.40;1.50;;;;;;;3.86;66.55;98100.77;105086;1274;59813;-73
2022/01/30 13:53:17;;;;;;;8.60;1.60;;;;;;;3.83;66.76;98122.06;105188;1274;59721;-73
2022/01/30 13:56:16;;;;;;;6.30;1.30;;;;;;;3.77;66.99;98120.45;105003;1273;71927;-73
2022/01/30 13:59:05;;;;;;;5.80;1.40;;;;;;;3.72;67.01;98123.48;105155;1273;66930;-73
2022/01/30 14:02:02;;;;;;;5.00;1.30;;;;;;;3.66;66.43;98137.44;105611;1274;73480;-73
2022/01/30 14:04:50;;;;;;;7.40;1.40;;;;;;;3.65;66.39;98132.78;105108;1275;59662;-73
2022/01/30 14:07:38;;;;;;;5.90;1.20;;;;;;;3.65;65.42;98147.40;104855;1274;60310;-73
2022/01/30 14:10:33;;;;;;;4.50;1.10;;;;;;;3.62;65.22;98173.21;105563;1273;72306;-73
2022/01/30 14:13:28;;;;;;;5.80;1.50;;;;;;;3.59;65.45;98165.72;105567;1273;66091;-73
2022/01/30 14:16:18;;;;;;;5.40;1.30;;;;;;;3.55;65.97;98174.42;105390;1273;72908;-72
2022/01/30 14:19:23;;;;;;;6.60;1.30;;;;;;;3.52;66.39;98185.91;105118;1274;59737;-72
2022/01/30 14:22:33;;;;;;;6.60;1.30;;;;;;;3.47;66.44;98182.80;104948;1274;59881;-73
2022/01/30 14:25:29;;;;;;;6.90;1.30;;;;;;;3.42;67.61;98206.14;105500;1275;73360;-73